createdAt,value
2022-08-14T00:02:16.528Z,18.94
2022-08-14T00:04:45.651Z,18.88
2022-08-14T00:07:14.553Z,18.85
2022-08-14T00:10:01.576Z,18.80
2022-08-14T00:12:39.134Z,18.75
2022-08-14T00:15:13.278Z,18.68
2022-08-14T00:17:47.393Z,18.63
2022-08-14T00:20:31.187Z,18.60
2022-08-14T00:23:11.985Z,18.54
2022-08-14T00:25:43.477Z,18.50
2022-08-14T00:28:26.559Z,18.47
2022-08-14T00:31:00.857Z,18.43
2022-08-14T00:33:50.430Z,18.42
2022-08-14T00:36:36.736Z,18.42
2022-08-14T00:39:09.576Z,18.38
2022-08-14T00:41:39.145Z,18.33
2022-08-14T00:44:08.285Z,18.31
2022-08-14T00:46:37.831Z,18.29
2022-08-14T00:49:11.600Z,18.25
2022-08-14T00:51:44.479Z,18.23
2022-08-14T00:54:21.185Z,18.21
2022-08-14T00:56:51.698Z,18.17
2022-08-14T00:59:25.258Z,18.17
2022-08-14T01:01:56.072Z,18.13
2022-08-14T01:04:50.964Z,18.09
2022-08-14T01:07:21.499Z,18.01
2022-08-14T01:09:51.810Z,17.99
2022-08-14T01:12:26.835Z,17.95
2022-08-14T01:15:09.852Z,17.89
2022-08-14T01:18:00.259Z,17.89
2022-08-14T01:20:54.728Z,17.86
2022-08-14T01:23:26.519Z,17.87
2022-08-14T01:26:11.625Z,17.83
2022-08-14T01:28:56.033Z,17.82
2022-08-14T01:31:28.825Z,17.83
2022-08-14T01:35:19.905Z,17.76
2022-08-14T01:36:50.220Z,17.75
2022-08-14T01:39:20.566Z,17.68
2022-08-14T01:41:58.255Z,17.61
2022-08-14T01:44:32.747Z,17.58
2022-08-14T01:47:05.662Z,17.60
2022-08-14T01:49:35.723Z,17.56
2022-08-14T01:52:34.527Z,17.54
2022-08-14T01:55:03.626Z,17.50
2022-08-14T01:58:00.703Z,17.48
2022-08-14T02:00:23.921Z,17.46
2022-08-14T02:02:57.063Z,17.45
2022-08-14T02:05:29.520Z,17.47
2022-08-14T02:08:09.133Z,17.42
2022-08-14T02:10:46.463Z,17.36
2022-08-14T02:13:17.408Z,17.33
2022-08-14T02:15:48.576Z,17.32
2022-08-14T02:18:18.357Z,17.30
2022-08-14T02:20:47.751Z,17.21
2022-08-14T02:23:23.883Z,17.19
2022-08-14T02:26:24.075Z,17.15
2022-08-14T02:29:00.205Z,17.13
2022-08-14T02:31:42.471Z,17.10
2022-08-14T02:34:22.552Z,17.04
2022-08-14T02:37:05.131Z,16.95
2022-08-14T02:39:37.669Z,16.91
2022-08-14T02:42:13.365Z,16.87
2022-08-14T02:44:43.300Z,16.84
2022-08-14T02:47:20.930Z,16.83
2022-08-14T02:49:54.829Z,16.82
2022-08-14T02:52:55.682Z,16.81
2022-08-14T02:55:11.953Z,16.78
2022-08-14T02:58:03.106Z,16.74
2022-08-14T03:00:33.520Z,16.74
2022-08-14T03:03:07.520Z,16.72
2022-08-14T03:05:41.178Z,16.72
2022-08-14T03:08:16.159Z,16.70
2022-08-14T03:10:49.160Z,16.70
2022-08-14T03:13:21.640Z,16.67
2022-08-14T03:15:55.940Z,16.62
2022-08-14T03:18:31.889Z,16.59
2022-08-14T03:21:03.651Z,16.57
2022-08-14T03:23:37.966Z,16.55
2022-08-14T03:26:08.751Z,16.53
2022-08-14T03:28:43.426Z,16.50
2022-08-14T03:31:13.363Z,16.50
2022-08-14T03:33:45.260Z,16.47
2022-08-14T03:39:08.381Z,16.45
2022-08-14T03:39:21.995Z,16.42
2022-08-14T03:41:54.415Z,16.39
2022-08-14T03:45:26.762Z,16.35
2022-08-14T03:47:15.416Z,16.34
2022-08-14T03:49:47.678Z,16.28
2022-08-14T03:52:38.903Z,16.27
2022-08-14T03:55:09.494Z,16.28
2022-08-14T03:57:37.674Z,16.25
2022-08-14T04:00:13.401Z,16.21
2022-08-14T04:02:47.242Z,16.18
2022-08-14T04:05:16.477Z,16.15
2022-08-14T04:08:00.097Z,16.13
2022-08-14T04:10:33.237Z,16.12
2022-08-14T04:13:03.470Z,16.11
2022-08-14T04:15:56.481Z,16.10
2022-08-14T04:18:21.851Z,16.08
2022-08-14T04:20:51.617Z,16.06
2022-08-14T04:23:29.748Z,16.06
2022-08-14T04:26:01.996Z,16.07
2022-08-14T04:29:07.794Z,16.03
2022-08-14T04:32:56.718Z,16.00
2022-08-14T04:34:20.595Z,16.01
2022-08-14T04:37:07.887Z,15.97
2022-08-14T04:39:57.065Z,16.01
2022-08-14T04:42:47.619Z,16.03
2022-08-14T04:45:20.785Z,16.07
2022-08-14T04:48:10.010Z,16.10
2022-08-14T04:50:44.455Z,16.16
2022-08-14T04:53:15.257Z,16.15
2022-08-14T04:55:46.020Z,16.20
2022-08-14T04:58:22.012Z,16.25
2022-08-14T05:01:03.277Z,16.31
2022-08-14T05:03:34.347Z,16.34
2022-08-14T05:06:07.665Z,16.39
2022-08-14T05:08:59.681Z,16.47
2022-08-14T05:11:28.522Z,16.54
2022-08-14T05:14:17.109Z,16.61
2022-08-14T05:16:46.741Z,16.70
2022-08-14T05:19:27.326Z,16.77
2022-08-14T05:22:17.476Z,16.84
2022-08-14T05:24:50.665Z,16.95
2022-08-14T05:27:22.678Z,17.01
2022-08-14T05:29:55.157Z,17.08
2022-08-14T05:32:27.187Z,17.14
2022-08-14T05:35:07.234Z,17.17
2022-08-14T05:37:39.893Z,17.25
2022-08-14T05:40:14.199Z,17.34
2022-08-14T05:42:46.700Z,17.38
2022-08-14T05:45:21.266Z,17.44
2022-08-14T05:47:50.933Z,17.48
2022-08-14T05:50:20.594Z,17.56
2022-08-14T05:52:52.306Z,17.70
2022-08-14T05:55:22.598Z,17.82
2022-08-14T05:57:53.777Z,17.96
2022-08-14T06:00:31.675Z,18.13
2022-08-14T06:03:06.935Z,18.30
2022-08-14T06:05:38.818Z,18.43
2022-08-14T06:08:08.664Z,18.56
2022-08-14T06:10:51.336Z,18.67
2022-08-14T06:13:20.671Z,18.80
2022-08-14T06:15:50.911Z,18.96
2022-08-14T06:18:21.410Z,19.08
2022-08-14T06:20:54.492Z,19.23
2022-08-14T06:23:25.304Z,19.33
2022-08-14T06:25:55.336Z,19.43
2022-08-14T06:28:28.195Z,19.55
2022-08-14T06:30:57.093Z,19.74
2022-08-14T06:33:45.755Z,19.63
2022-08-14T06:36:18.567Z,20.01
2022-08-14T06:38:50.255Z,20.15
2022-08-14T06:41:20.748Z,20.36
2022-08-14T06:44:06.380Z,20.61
2022-08-14T06:46:38.207Z,20.93
2022-08-14T06:49:06.179Z,21.20
2022-08-14T06:51:38.468Z,21.32
2022-08-14T06:54:06.984Z,21.60
2022-08-14T06:56:36.390Z,21.88
2022-08-14T06:59:06.637Z,22.10
2022-08-14T07:01:58.176Z,22.35
2022-08-14T07:04:44.025Z,22.52
2022-08-14T07:07:13.558Z,22.70
2022-08-14T07:09:50.607Z,22.97
2022-08-14T07:12:54.254Z,22.89
2022-08-14T07:15:08.271Z,23.22
2022-08-14T07:17:36.615Z,23.37
2022-08-14T07:20:07.363Z,23.83
2022-08-14T07:22:49.983Z,23.81
2022-08-14T07:25:32.266Z,23.98
2022-08-14T07:28:01.920Z,23.98
2022-08-14T07:30:33.923Z,24.36
2022-08-14T07:33:03.167Z,24.48
2022-08-14T07:35:37.289Z,25.00
2022-08-14T07:38:19.129Z,26.09
2022-08-14T07:40:48.468Z,27.58
2022-08-14T07:43:22.013Z,29.76
2022-08-14T07:45:54.055Z,29.69
2022-08-14T07:48:25.187Z,31.88
2022-08-14T07:51:02.114Z,33.56
2022-08-14T07:53:41.456Z,33.24
2022-08-14T07:56:43.636Z,33.45
2022-08-14T07:58:58.977Z,34.68
2022-08-14T08:01:30.003Z,36.60
2022-08-14T08:04:01.221Z,37.49
2022-08-14T08:06:30.053Z,39.29
2022-08-14T08:09:02.840Z,40.34
2022-08-14T08:11:34.625Z,40.53
2022-08-14T08:14:06.454Z,39.57
2022-08-14T08:16:38.899Z,40.61
2022-08-14T08:19:14.226Z,42.27
2022-08-14T08:21:43.615Z,42.19
2022-08-14T08:24:18.340Z,42.56
2022-08-14T08:26:47.931Z,41.85
2022-08-14T08:29:25.130Z,39.75
2022-08-14T08:32:01.893Z,42.80
2022-08-14T08:34:45.348Z,43.89
2022-08-14T08:37:14.807Z,43.95
2022-08-14T08:40:02.247Z,44.82
2022-08-14T08:42:38.234Z,46.12
2022-08-14T08:45:11.839Z,45.79
2022-08-14T08:47:41.549Z,47.27
2022-08-14T08:50:23.192Z,45.48
2022-08-14T08:52:56.272Z,47.62
2022-08-14T08:55:32.691Z,48.37
2022-08-14T08:58:12.358Z,46.70
2022-08-14T09:00:43.245Z,47.36
2022-08-14T09:03:12.914Z,46.68
2022-08-14T09:05:54.199Z,46.94
2022-08-14T09:08:31.541Z,46.11
2022-08-14T09:11:18.820Z,45.72
2022-08-14T09:13:50.810Z,42.82
2022-08-14T09:16:23.437Z,43.50
2022-08-14T09:18:53.250Z,46.85
2022-08-14T09:21:24.274Z,48.79
2022-08-14T09:24:28.281Z,46.79
2022-08-14T09:26:49.392Z,47.91
2022-08-14T09:29:23.253Z,46.98
2022-08-14T09:31:57.690Z,46.05
2022-08-14T09:34:47.460Z,46.97
2022-08-14T09:37:35.818Z,43.94
2022-08-14T09:40:10.369Z,44.78
2022-08-14T09:42:57.205Z,43.38
2022-08-14T09:45:40.250Z,44.08
2022-08-14T09:48:29.353Z,41.23
2022-08-14T09:54:12.951Z,42.37
2022-08-14T09:56:31.538Z,41.87
2022-08-14T09:59:15.989Z,41.15
2022-08-14T10:01:46.274Z,41.11
2022-08-14T10:04:36.646Z,41.58
2022-08-14T10:07:10.333Z,40.58
2022-08-14T10:09:57.724Z,41.25
2022-08-14T10:12:43.614Z,41.01
2022-08-14T10:15:20.800Z,41.55
2022-08-14T10:17:50.114Z,42.17
2022-08-14T10:20:40.797Z,42.39
2022-08-14T10:23:16.427Z,40.22
2022-08-14T10:25:52.812Z,39.76
2022-08-14T10:28:39.170Z,38.95
2022-08-14T10:31:19.831Z,38.76
2022-08-14T10:34:01.149Z,39.62
2022-08-14T10:36:37.129Z,39.72
2022-08-14T10:39:16.455Z,40.86
2022-08-14T10:41:46.730Z,41.90
2022-08-14T10:44:21.381Z,40.39
2022-08-14T10:47:39.642Z,40.21
2022-08-14T10:50:00.190Z,40.02
2022-08-14T10:52:30.045Z,39.49
2022-08-14T10:55:08.287Z,39.19
2022-08-14T10:57:48.704Z,38.55
2022-08-14T11:00:30.140Z,37.48
2022-08-14T11:03:08.114Z,37.19
2022-08-14T11:05:43.187Z,37.60
2022-08-14T11:08:13.030Z,37.99
2022-08-14T11:10:45.008Z,39.00
2022-08-14T11:13:18.825Z,37.84
2022-08-14T11:15:48.885Z,39.53
2022-08-14T11:18:30.242Z,38.17
2022-08-14T11:21:04.101Z,38.38
2022-08-14T11:23:38.170Z,38.40
2022-08-14T11:26:10.191Z,38.88
2022-08-14T11:28:46.253Z,38.03
2022-08-14T11:31:15.237Z,36.99
2022-08-14T11:33:49.078Z,36.74
2022-08-14T11:36:18.296Z,37.00
2022-08-14T11:38:47.531Z,37.84
2022-08-14T11:41:17.612Z,39.52
2022-08-14T11:43:58.003Z,39.97
2022-08-14T11:46:29.879Z,38.79
2022-08-14T11:49:06.715Z,38.26
2022-08-14T11:51:36.050Z,37.02
2022-08-14T11:54:19.932Z,37.01
2022-08-14T11:56:50.727Z,36.12
2022-08-14T11:59:26.489Z,35.27
2022-08-14T12:03:01.630Z,35.65
2022-08-14T12:04:59.836Z,35.03
2022-08-14T12:07:27.913Z,35.88
2022-08-14T12:09:58.883Z,36.28
2022-08-14T12:12:35.511Z,36.73
2022-08-14T12:15:07.204Z,36.47
2022-08-14T12:17:49.327Z,36.09
2022-08-14T12:20:32.398Z,36.20
2022-08-14T12:23:02.225Z,36.73
2022-08-14T12:25:35.108Z,36.32
2022-08-14T12:28:08.673Z,34.59
2022-08-14T12:30:43.014Z,34.78
2022-08-14T12:33:32.875Z,35.90
2022-08-14T12:36:08.413Z,36.77
2022-08-14T12:38:43.777Z,37.12
2022-08-14T12:41:20.602Z,37.49
2022-08-14T12:43:53.709Z,38.35
2022-08-14T12:46:29.647Z,37.35
2022-08-14T12:49:00.337Z,39.21
2022-08-14T12:51:32.001Z,38.25
2022-08-14T12:54:00.987Z,39.27
2022-08-14T12:56:34.166Z,39.93
2022-08-14T12:59:02.633Z,40.68
2022-08-14T13:01:59.589Z,40.51
2022-08-14T13:04:22.941Z,39.73
2022-08-14T13:06:52.994Z,40.30
2022-08-14T13:09:35.819Z,39.40
2022-08-14T13:12:34.801Z,40.81
2022-08-14T13:15:01.217Z,41.41
2022-08-14T13:17:29.300Z,42.07
2022-08-14T13:20:10.373Z,42.79
2022-08-14T13:22:45.265Z,42.36
2022-08-14T13:25:15.683Z,42.52
2022-08-14T13:27:46.963Z,42.81
2022-08-14T13:30:23.305Z,41.21
2022-08-14T13:32:53.418Z,40.46
2022-08-14T13:35:23.120Z,39.65
2022-08-14T13:37:53.999Z,39.35
2022-08-14T13:40:26.647Z,37.87
2022-08-14T13:42:57.332Z,36.48
2022-08-14T13:45:33.851Z,37.77
2022-08-14T13:48:27.403Z,37.31
2022-08-14T13:51:03.965Z,35.66
2022-08-14T13:54:10.870Z,35.44
2022-08-14T13:57:06.215Z,35.00
2022-08-14T13:59:51.189Z,34.88
2022-08-14T14:02:40.922Z,33.94
2022-08-14T14:05:27.115Z,33.89
2022-08-14T14:08:43.767Z,33.67
2022-08-14T14:11:46.582Z,32.89
2022-08-14T14:14:44.567Z,32.48
2022-08-14T14:17:18.425Z,32.39
2022-08-14T14:20:04.832Z,32.01
2022-08-14T14:23:01.328Z,31.59
2022-08-14T14:25:45.804Z,31.39
2022-08-14T14:28:39.472Z,31.18
2022-08-14T14:31:17.183Z,31.25
2022-08-14T14:33:59.309Z,31.08
2022-08-14T14:36:32.478Z,31.44
2022-08-14T14:39:02.398Z,32.94
2022-08-14T14:41:37.766Z,34.16
2022-08-14T14:44:15.604Z,34.83
2022-08-14T14:46:50.960Z,34.79
2022-08-14T14:49:21.790Z,32.70
2022-08-14T14:51:51.517Z,31.87
2022-08-14T14:54:31.257Z,31.53
2022-08-14T14:57:02.508Z,31.24
2022-08-14T14:59:33.370Z,31.27
2022-08-14T15:02:09.407Z,33.31
2022-08-14T15:04:43.461Z,36.18
2022-08-14T15:07:12.389Z,36.94
2022-08-14T15:09:41.237Z,36.85
2022-08-14T15:12:27.954Z,36.62
2022-08-14T15:15:08.467Z,36.35
2022-08-14T15:17:41.178Z,36.35
2022-08-14T15:20:16.851Z,35.25
2022-08-14T15:22:51.354Z,34.58
2022-08-14T15:25:19.901Z,35.73
2022-08-14T15:27:54.354Z,35.97
2022-08-14T15:30:32.618Z,35.69
2022-08-14T15:33:00.893Z,35.07
2022-08-14T15:35:33.968Z,35.68
2022-08-14T15:38:08.095Z,35.94
2022-08-14T15:40:41.068Z,36.02
2022-08-14T15:43:10.880Z,34.75
2022-08-14T15:45:42.857Z,35.36
2022-08-14T15:48:22.326Z,35.40
2022-08-14T15:50:51.828Z,33.71
2022-08-14T15:53:22.384Z,33.81
2022-08-14T15:55:52.927Z,33.33
2022-08-14T15:58:21.718Z,32.97
2022-08-14T16:01:09.233Z,32.76
2022-08-14T16:03:42.246Z,32.44
2022-08-14T16:06:15.461Z,32.39
2022-08-14T16:08:50.456Z,31.92
2022-08-14T16:11:33.066Z,31.66
2022-08-14T16:14:01.729Z,31.41
2022-08-14T16:16:51.672Z,31.07
2022-08-14T16:19:24.434Z,30.79
2022-08-14T16:22:01.586Z,30.66
2022-08-14T16:24:59.940Z,30.40
2022-08-14T16:27:33.638Z,30.19
2022-08-14T16:30:06.660Z,30.10
2022-08-14T16:32:55.499Z,29.97
2022-08-14T16:35:26.421Z,29.90
2022-08-14T16:38:19.790Z,29.91
2022-08-14T16:41:16.605Z,29.85
2022-08-14T16:43:45.395Z,29.65
2022-08-14T16:46:15.487Z,29.55
2022-08-14T16:48:57.612Z,29.50
2022-08-14T16:51:28.093Z,29.50
2022-08-14T16:53:57.149Z,29.43
2022-08-14T16:56:30.774Z,29.43
2022-08-14T16:59:08.590Z,29.38
2022-08-14T17:02:43.842Z,29.28
2022-08-14T17:05:21.866Z,29.18
2022-08-14T17:08:32.310Z,29.14
2022-08-14T17:11:09.842Z,29.13
2022-08-14T17:13:59.590Z,29.13
2022-08-14T17:16:29.117Z,29.08
2022-08-14T17:19:02.910Z,29.05
2022-08-14T17:21:37.626Z,29.00
2022-08-14T17:24:56.345Z,28.96
2022-08-14T17:27:00.076Z,28.92
2022-08-14T17:29:34.489Z,28.85
2022-08-14T17:32:28.345Z,28.78
2022-08-14T17:35:01.580Z,28.70
2022-08-14T17:37:34.034Z,28.59
2022-08-14T17:40:15.927Z,28.53
2022-08-14T17:42:54.361Z,28.47
2022-08-14T17:45:26.739Z,28.37
2022-08-14T17:47:59.997Z,28.30
2022-08-14T17:51:00.122Z,28.22
2022-08-14T17:53:30.374Z,28.10
2022-08-14T17:56:01.081Z,28.01
2022-08-14T17:58:42.110Z,27.94
2022-08-14T18:01:14.614Z,27.81
2022-08-14T18:03:49.917Z,27.69
2022-08-14T18:06:38.211Z,27.57
2022-08-14T18:09:24.599Z,27.45
2022-08-14T18:11:55.541Z,27.30
2022-08-14T18:14:32.360Z,27.21
2022-08-14T18:17:02.504Z,27.07
2022-08-14T18:19:34.530Z,26.96
2022-08-14T18:22:24.048Z,26.85
2022-08-14T18:24:57.017Z,26.75
2022-08-14T18:27:41.768Z,26.63
2022-08-14T18:30:33.179Z,26.52
2022-08-14T18:33:13.852Z,26.40
2022-08-14T18:35:59.038Z,26.30
2022-08-14T18:38:42.800Z,26.20
2022-08-14T18:41:37.203Z,26.06
2022-08-14T18:44:10.612Z,25.95
2022-08-14T18:47:21.153Z,25.84
2022-08-14T18:50:26.369Z,25.71
2022-08-14T18:53:06.804Z,25.62
2022-08-14T18:55:53.728Z,25.55
2022-08-14T18:58:31.692Z,25.48
2022-08-14T19:01:04.647Z,25.40
2022-08-14T19:03:58.845Z,25.30
2022-08-14T19:06:50.110Z,25.25
2022-08-14T19:09:57.950Z,25.17
2022-08-14T19:13:11.744Z,25.12
2022-08-14T19:15:45.023Z,25.05
2022-08-14T19:18:28.732Z,25.05
2022-08-14T19:20:59.173Z,25.02
2022-08-14T19:23:42.413Z,25.01
2022-08-14T19:26:35.324Z,24.94
2022-08-14T19:29:38.237Z,24.86
2022-08-14T19:32:39.236Z,24.80
2022-08-14T19:35:17.156Z,24.69
2022-08-14T19:37:52.618Z,24.65
2022-08-14T19:40:31.948Z,24.61
2022-08-14T19:43:06.679Z,24.55
2022-08-14T19:45:39.496Z,24.41
2022-08-14T19:48:15.589Z,24.27
2022-08-14T19:50:46.454Z,24.18
2022-08-14T19:53:18.307Z,24.07
2022-08-14T19:56:00.636Z,24.04
2022-08-14T19:58:54.942Z,23.96
2022-08-14T20:01:37.085Z,23.91
2022-08-14T20:04:08.569Z,23.83
2022-08-14T20:06:57.317Z,23.77
2022-08-14T20:11:05.839Z,23.73
2022-08-14T20:12:28.852Z,23.73
2022-08-14T20:15:10.286Z,23.68
2022-08-14T20:17:41.079Z,23.52
2022-08-14T20:20:21.077Z,23.30
2022-08-14T20:23:10.770Z,23.19
2022-08-14T20:25:57.158Z,23.25
2022-08-14T20:28:35.751Z,23.10
2022-08-14T20:31:15.795Z,23.06
2022-08-14T20:34:18.800Z,23.06
2022-08-14T20:37:02.892Z,22.94
2022-08-14T20:39:34.199Z,22.91
2022-08-14T20:42:31.049Z,23.00
2022-08-14T20:45:23.595Z,23.01
2022-08-14T20:48:01.563Z,23.04
2022-08-14T20:50:32.092Z,23.01
2022-08-14T20:53:06.048Z,22.96
2022-08-14T20:55:41.748Z,23.00
2022-08-14T20:58:38.537Z,22.99
2022-08-14T21:01:33.734Z,23.10
2022-08-14T21:04:12.144Z,23.12
2022-08-14T21:07:23.060Z,23.11
2022-08-14T21:10:04.849Z,23.08
2022-08-14T21:12:33.528Z,23.06
2022-08-14T21:15:03.926Z,23.06
2022-08-14T21:17:40.065Z,23.05
2022-08-14T21:20:25.546Z,23.04
2022-08-14T21:23:00.540Z,23.08
2022-08-14T21:25:31.439Z,23.09
2022-08-14T21:28:04.013Z,23.09
2022-08-14T21:30:51.450Z,23.16
2022-08-14T21:33:23.549Z,23.17
2022-08-14T21:35:54.938Z,23.17
2022-08-14T21:38:33.490Z,23.16
2022-08-14T21:41:41.364Z,23.14
2022-08-14T21:44:18.331Z,23.13
2022-08-14T21:46:51.166Z,23.10
2022-08-14T21:49:32.236Z,23.06
2022-08-14T21:52:52.226Z,23.03
2022-08-14T21:55:09.532Z,22.98
2022-08-14T21:58:45.993Z,22.97
2022-08-14T22:00:35.326Z,22.93
2022-08-14T22:03:08.931Z,22.90
2022-08-14T22:05:40.276Z,22.90
2022-08-14T22:08:12.401Z,22.91
2022-08-14T22:10:44.718Z,22.89
2022-08-14T22:13:15.991Z,22.88
2022-08-14T22:15:49.542Z,22.85
2022-08-14T22:18:20.380Z,22.86
2022-08-14T22:20:53.857Z,22.84
2022-08-14T22:23:25.939Z,22.82
2022-08-14T22:25:55.498Z,22.80
2022-08-14T22:28:32.754Z,22.79
2022-08-14T22:31:03.465Z,22.78
2022-08-14T22:33:32.787Z,22.78
2022-08-14T22:36:25.454Z,22.75
2022-08-14T22:38:54.177Z,22.70
2022-08-14T22:41:29.608Z,22.67
2022-08-14T22:44:03.197Z,22.60
2022-08-14T22:46:31.358Z,22.54
2022-08-14T22:48:59.322Z,22.51
2022-08-14T22:51:28.319Z,22.50
2022-08-14T22:53:59.200Z,22.45
2022-08-14T22:56:30.478Z,22.44
2022-08-14T22:59:00.380Z,22.40
2022-08-14T23:01:55.584Z,22.37
2022-08-14T23:04:35.841Z,22.31
2022-08-14T23:07:22.352Z,22.25
2022-08-14T23:10:32.284Z,22.26
2022-08-14T23:12:54.503Z,22.23
2022-08-14T23:15:29.799Z,22.22
2022-08-14T23:17:58.823Z,22.20
2022-08-14T23:20:29.550Z,22.19
2022-08-14T23:22:59.641Z,22.20
2022-08-14T23:25:44.729Z,22.13
2022-08-14T23:28:33.576Z,22.11
2022-08-14T23:31:12.500Z,22.07
2022-08-14T23:33:51.809Z,22.06
2022-08-14T23:36:31.500Z,22.05
2022-08-14T23:39:12.137Z,22.02
2022-08-14T23:41:46.255Z,22.01
2022-08-14T23:44:22.737Z,22.01
2022-08-14T23:46:52.632Z,22.03
2022-08-14T23:49:25.444Z,22.03
2022-08-14T23:52:49.469Z,22.04
2022-08-14T23:54:48.647Z,22.07
2022-08-14T23:57:19.151Z,22.06
2022-08-14T23:59:54.804Z,22.01
